Terminal Aerodrome Forecast
Issued by NWS Sterling, VA

Current Version | Previous Version | Graphics & Text | Print | Product List | Glossary On
Versions: 1 2 3 4 5 6 7 8 9 10 11 12 13 14 15 16 17 18 19 20
914
FTUS41 KLWX 281130
TAFMRB
TAF
KMRB 281130Z 2812/2912 00000KT 5SM -SHRA BR OVC050
     FM281500 23004KT P6SM -SHRA BKN060
     FM282200 29006KT P6SM -SHRA BKN040
     FM290000 32006KT P6SM BKN040
     FM290200 33008KT P6SM BKN030
     FM290500 34007KT P6SM BKN035
     FM290600 34006KT P6SM BKN015
     FM290900 34007KT P6SM SCT030
     FM291100 34007KT P6SM SCT030=

USA.gov is the U.S. government's official web portal to all federal, state and local government web resources and services.